sensor_id;sensor_type;location;lat;lon;timestamp;P1;durP1;ratioP1;P2;durP2;ratioP2
22250;SDS011;59348;52.158;5.588;2022-08-25T00:01:41;6.85;;;6.15;;
22250;SDS011;59348;52.158;5.588;2022-08-25T00:04:11;9.18;;;6.35;;
22250;SDS011;59348;52.158;5.588;2022-08-25T00:06:38;6.63;;;5.93;;
22250;SDS011;59348;52.158;5.588;2022-08-25T00:09:06;7.25;;;6.45;;
22250;SDS011;59348;52.158;5.588;2022-08-25T00:11:34;8.65;;;6.50;;
22250;SDS011;59348;52.158;5.588;2022-08-25T00:14:04;7.47;;;6.45;;
22250;SDS011;59348;52.158;5.588;2022-08-25T00:16:32;8.80;;;6.40;;
22250;SDS011;59348;52.158;5.588;2022-08-25T00:19:00;6.70;;;6.00;;
22250;SDS011;59348;52.158;5.588;2022-08-25T00:21:28;7.68;;;5.97;;
22250;SDS011;59348;52.158;5.588;2022-08-25T00:23:56;7.40;;;6.63;;
22250;SDS011;59348;52.158;5.588;2022-08-25T00:26:26;7.28;;;5.85;;
22250;SDS011;59348;52.158;5.588;2022-08-25T00:28:53;7.80;;;5.72;;
22250;SDS011;59348;52.158;5.588;2022-08-25T00:31:22;6.82;;;6.13;;
22250;SDS011;59348;52.158;5.588;2022-08-25T00:33:50;8.15;;;6.22;;
22250;SDS011;59348;52.158;5.588;2022-08-25T00:36:17;9.27;;;6.50;;
22250;SDS011;59348;52.158;5.588;2022-08-25T00:38:45;7.70;;;6.55;;
22250;SDS011;59348;52.158;5.588;2022-08-25T00:41:15;8.30;;;6.72;;
22250;SDS011;59348;52.158;5.588;2022-08-25T00:43:46;9.05;;;6.57;;
22250;SDS011;59348;52.158;5.588;2022-08-25T00:46:15;7.65;;;6.68;;
22250;SDS011;59348;52.158;5.588;2022-08-25T00:48:45;8.13;;;6.50;;
22250;SDS011;59348;52.158;5.588;2022-08-25T00:51:16;11.45;;;6.68;;
22250;SDS011;59348;52.158;5.588;2022-08-25T00:53:44;9.43;;;7.28;;
22250;SDS011;59348;52.158;5.588;2022-08-25T00:56:12;7.63;;;6.90;;
22250;SDS011;59348;52.158;5.588;2022-08-25T00:58:40;7.80;;;6.72;;
22250;SDS011;59348;52.158;5.588;2022-08-25T01:01:08;7.20;;;6.32;;
22250;SDS011;59348;52.158;5.588;2022-08-25T01:03:35;7.78;;;6.13;;
22250;SDS011;59348;52.158;5.588;2022-08-25T01:06:04;8.00;;;7.20;;
22250;SDS011;59348;52.158;5.588;2022-08-25T01:08:32;8.90;;;7.40;;
22250;SDS011;59348;52.158;5.588;2022-08-25T01:11:01;9.93;;;7.20;;
22250;SDS011;59348;52.158;5.588;2022-08-25T01:13:31;9.15;;;7.65;;
22250;SDS011;59348;52.158;5.588;2022-08-25T01:15:59;7.70;;;7.00;;
22250;SDS011;59348;52.158;5.588;2022-08-25T01:18:27;8.82;;;7.93;;
22250;SDS011;59348;52.158;5.588;2022-08-25T01:20:56;8.57;;;7.38;;
22250;SDS011;59348;52.158;5.588;2022-08-25T01:23:24;10.98;;;8.38;;
22250;SDS011;59348;52.158;5.588;2022-08-25T01:25:52;12.15;;;8.32;;
22250;SDS011;59348;52.158;5.588;2022-08-25T01:28:22;9.68;;;8.13;;
22250;SDS011;59348;52.158;5.588;2022-08-25T01:30:49;9.27;;;8.15;;
22250;SDS011;59348;52.158;5.588;2022-08-25T01:33:17;11.30;;;8.38;;
22250;SDS011;59348;52.158;5.588;2022-08-25T01:35:45;10.30;;;8.45;;
22250;SDS011;59348;52.158;5.588;2022-08-25T01:38:13;9.07;;;8.10;;
22250;SDS011;59348;52.158;5.588;2022-08-25T01:40:41;10.82;;;8.98;;
22250;SDS011;59348;52.158;5.588;2022-08-25T01:43:11;8.88;;;7.95;;
22250;SDS011;59348;52.158;5.588;2022-08-25T01:45:44;8.40;;;7.60;;
22250;SDS011;59348;52.158;5.588;2022-08-25T01:48:11;14.77;;;9.10;;
22250;SDS011;59348;52.158;5.588;2022-08-25T01:50:38;9.52;;;8.18;;
22250;SDS011;59348;52.158;5.588;2022-08-25T01:53:07;10.55;;;8.82;;
22250;SDS011;59348;52.158;5.588;2022-08-25T01:55:36;10.13;;;8.30;;
22250;SDS011;59348;52.158;5.588;2022-08-25T01:58:17;8.70;;;7.88;;
22250;SDS011;59348;52.158;5.588;2022-08-25T02:00:45;9.38;;;7.90;;
22250;SDS011;59348;52.158;5.588;2022-08-25T02:03:12;10.30;;;8.20;;
22250;SDS011;59348;52.158;5.588;2022-08-25T02:05:39;10.07;;;8.23;;
22250;SDS011;59348;52.158;5.588;2022-08-25T02:08:07;9.82;;;8.32;;
22250;SDS011;59348;52.158;5.588;2022-08-25T02:10:34;9.10;;;8.02;;
22250;SDS011;59348;52.158;5.588;2022-08-25T02:13:03;9.07;;;8.00;;
22250;SDS011;59348;52.158;5.588;2022-08-25T02:15:30;13.30;;;8.30;;
22250;SDS011;59348;52.158;5.588;2022-08-25T02:17:58;9.15;;;8.23;;
22250;SDS011;59348;52.158;5.588;2022-08-25T02:20:25;10.63;;;8.60;;
22250;SDS011;59348;52.158;5.588;2022-08-25T02:22:52;9.80;;;7.95;;
22250;SDS011;59348;52.158;5.588;2022-08-25T02:25:20;10.48;;;8.18;;
22250;SDS011;59348;52.158;5.588;2022-08-25T02:27:47;8.68;;;7.75;;
22250;SDS011;59348;52.158;5.588;2022-08-25T02:30:16;8.90;;;8.00;;
22250;SDS011;59348;52.158;5.588;2022-08-25T02:32:44;11.52;;;8.23;;
22250;SDS011;59348;52.158;5.588;2022-08-25T02:35:11;8.98;;;7.72;;
22250;SDS011;59348;52.158;5.588;2022-08-25T02:37:38;9.50;;;8.38;;
22250;SDS011;59348;52.158;5.588;2022-08-25T02:40:06;11.38;;;8.02;;
22250;SDS011;59348;52.158;5.588;2022-08-25T02:42:34;10.02;;;8.57;;
22250;SDS011;59348;52.158;5.588;2022-08-25T02:45:01;12.90;;;8.07;;
22250;SDS011;59348;52.158;5.588;2022-08-25T02:47:30;12.70;;;7.78;;
22250;SDS011;59348;52.158;5.588;2022-08-25T02:49:57;8.65;;;7.75;;
22250;SDS011;59348;52.158;5.588;2022-08-25T02:52:25;9.60;;;8.02;;
22250;SDS011;59348;52.158;5.588;2022-08-25T02:54:52;8.88;;;7.97;;
22250;SDS011;59348;52.158;5.588;2022-08-25T02:57:19;9.98;;;7.95;;
22250;SDS011;59348;52.158;5.588;2022-08-25T02:59:46;9.50;;;8.07;;
22250;SDS011;59348;52.158;5.588;2022-08-25T03:02:15;9.40;;;7.63;;
22250;SDS011;59348;52.158;5.588;2022-08-25T03:04:44;8.48;;;7.68;;
22250;SDS011;59348;52.158;5.588;2022-08-25T03:07:12;11.90;;;8.60;;
22250;SDS011;59348;52.158;5.588;2022-08-25T03:09:39;8.93;;;7.75;;
22250;SDS011;59348;52.158;5.588;2022-08-25T03:12:06;11.27;;;8.75;;
22250;SDS011;59348;52.158;5.588;2022-08-25T03:14:35;9.48;;;8.00;;
22250;SDS011;59348;52.158;5.588;2022-08-25T03:17:03;8.77;;;7.70;;
22250;SDS011;59348;52.158;5.588;2022-08-25T03:19:30;10.07;;;7.85;;
22250;SDS011;59348;52.158;5.588;2022-08-25T03:21:59;12.07;;;8.18;;
22250;SDS011;59348;52.158;5.588;2022-08-25T03:24:26;8.00;;;7.20;;
22250;SDS011;59348;52.158;5.588;2022-08-25T03:26:54;11.23;;;7.95;;
22250;SDS011;59348;52.158;5.588;2022-08-25T03:29:20;9.57;;;8.05;;
22250;SDS011;59348;52.158;5.588;2022-08-25T03:31:49;9.35;;;8.05;;
22250;SDS011;59348;52.158;5.588;2022-08-25T03:34:17;8.93;;;7.72;;
22250;SDS011;59348;52.158;5.588;2022-08-25T03:36:46;13.45;;;8.48;;
22250;SDS011;59348;52.158;5.588;2022-08-25T03:39:15;9.38;;;7.78;;
22250;SDS011;59348;52.158;5.588;2022-08-25T03:41:42;10.13;;;7.75;;
22250;SDS011;59348;52.158;5.588;2022-08-25T03:44:10;9.65;;;7.45;;
22250;SDS011;59348;52.158;5.588;2022-08-25T03:46:38;11.52;;;7.43;;
22250;SDS011;59348;52.158;5.588;2022-08-25T03:49:06;8.95;;;7.40;;
22250;SDS011;59348;52.158;5.588;2022-08-25T03:51:35;9.40;;;7.38;;
22250;SDS011;59348;52.158;5.588;2022-08-25T03:54:03;8.88;;;7.25;;
22250;SDS011;59348;52.158;5.588;2022-08-25T03:56:32;9.05;;;7.75;;
22250;SDS011;59348;52.158;5.588;2022-08-25T03:58:59;8.85;;;7.78;;
22250;SDS011;59348;52.158;5.588;2022-08-25T04:01:27;8.52;;;7.53;;
22250;SDS011;59348;52.158;5.588;2022-08-25T04:03:54;9.52;;;7.82;;
22250;SDS011;59348;52.158;5.588;2022-08-25T04:06:22;12.98;;;7.20;;
22250;SDS011;59348;52.158;5.588;2022-08-25T04:08:49;8.82;;;7.28;;
22250;SDS011;59348;52.158;5.588;2022-08-25T04:11:18;10.35;;;7.20;;
22250;SDS011;59348;52.158;5.588;2022-08-25T04:13:47;11.35;;;7.00;;
22250;SDS011;59348;52.158;5.588;2022-08-25T04:16:16;8.32;;;6.10;;
22250;SDS011;59348;52.158;5.588;2022-08-25T04:18:44;9.98;;;6.47;;
22250;SDS011;59348;52.158;5.588;2022-08-25T04:21:12;8.15;;;5.90;;
22250;SDS011;59348;52.158;5.588;2022-08-25T04:23:40;6.25;;;5.65;;
22250;SDS011;59348;52.158;5.588;2022-08-25T04:26:08;7.40;;;6.38;;
22250;SDS011;59348;52.158;5.588;2022-08-25T04:28:36;7.93;;;5.55;;
22250;SDS011;59348;52.158;5.588;2022-08-25T04:31:05;8.02;;;5.85;;
22250;SDS011;59348;52.158;5.588;2022-08-25T04:33:33;8.80;;;5.85;;
22250;SDS011;59348;52.158;5.588;2022-08-25T04:36:00;7.05;;;5.53;;
22250;SDS011;59348;52.158;5.588;2022-08-25T04:38:27;7.70;;;5.88;;
22250;SDS011;59348;52.158;5.588;2022-08-25T04:40:56;10.27;;;5.70;;
22250;SDS011;59348;52.158;5.588;2022-08-25T04:43:23;8.48;;;6.00;;
22250;SDS011;59348;52.158;5.588;2022-08-25T04:45:51;10.23;;;5.90;;
22250;SDS011;59348;52.158;5.588;2022-08-25T04:48:21;7.95;;;5.88;;
22250;SDS011;59348;52.158;5.588;2022-08-25T04:50:48;9.88;;;5.70;;
22250;SDS011;59348;52.158;5.588;2022-08-25T04:53:15;10.55;;;5.78;;
22250;SDS011;59348;52.158;5.588;2022-08-25T04:55:43;7.68;;;6.00;;
22250;SDS011;59348;52.158;5.588;2022-08-25T04:58:11;7.82;;;5.53;;
22250;SDS011;59348;52.158;5.588;2022-08-25T05:00:39;9.88;;;5.70;;
22250;SDS011;59348;52.158;5.588;2022-08-25T05:03:06;7.53;;;5.95;;
22250;SDS011;59348;52.158;5.588;2022-08-25T05:05:36;7.82;;;5.97;;
22250;SDS011;59348;52.158;5.588;2022-08-25T05:08:03;9.57;;;5.97;;
22250;SDS011;59348;52.158;5.588;2022-08-25T05:10:31;8.73;;;6.30;;
22250;SDS011;59348;52.158;5.588;2022-08-25T05:12:58;7.05;;;5.80;;
22250;SDS011;59348;52.158;5.588;2022-08-25T05:15:25;9.18;;;6.03;;
22250;SDS011;59348;52.158;5.588;2022-08-25T05:18:07;8.23;;;5.75;;
22250;SDS011;59348;52.158;5.588;2022-08-25T05:20:36;9.30;;;5.70;;
22250;SDS011;59348;52.158;5.588;2022-08-25T05:23:03;7.38;;;5.38;;
22250;SDS011;59348;52.158;5.588;2022-08-25T05:25:31;9.18;;;5.57;;
22250;SDS011;59348;52.158;5.588;2022-08-25T05:27:58;11.60;;;6.03;;
22250;SDS011;59348;52.158;5.588;2022-08-25T05:30:26;8.02;;;5.45;;
22250;SDS011;59348;52.158;5.588;2022-08-25T05:32:53;8.13;;;5.90;;
22250;SDS011;59348;52.158;5.588;2022-08-25T05:35:21;9.55;;;5.75;;
22250;SDS011;59348;52.158;5.588;2022-08-25T05:37:50;10.88;;;5.50;;
22250;SDS011;59348;52.158;5.588;2022-08-25T05:40:17;9.18;;;5.75;;
22250;SDS011;59348;52.158;5.588;2022-08-25T05:42:45;5.90;;;4.97;;
22250;SDS011;59348;52.158;5.588;2022-08-25T05:45:12;8.38;;;5.65;;
22250;SDS011;59348;52.158;5.588;2022-08-25T05:47:39;10.70;;;6.43;;
22250;SDS011;59348;52.158;5.588;2022-08-25T05:50:07;8.43;;;5.55;;
22250;SDS011;59348;52.158;5.588;2022-08-25T05:52:34;11.57;;;6.30;;
22250;SDS011;59348;52.158;5.588;2022-08-25T05:55:03;8.57;;;5.35;;
22250;SDS011;59348;52.158;5.588;2022-08-25T05:57:31;9.30;;;6.13;;
22250;SDS011;59348;52.158;5.588;2022-08-25T05:59:58;11.40;;;5.97;;
22250;SDS011;59348;52.158;5.588;2022-08-25T06:02:26;12.07;;;6.13;;
22250;SDS011;59348;52.158;5.588;2022-08-25T06:05:07;9.15;;;5.40;;
22250;SDS011;59348;52.158;5.588;2022-08-25T06:07:34;14.48;;;6.32;;
22250;SDS011;59348;52.158;5.588;2022-08-25T06:10:04;9.07;;;5.95;;
22250;SDS011;59348;52.158;5.588;2022-08-25T06:12:32;10.95;;;5.90;;
22250;SDS011;59348;52.158;5.588;2022-08-25T06:15:01;17.52;;;6.63;;
22250;SDS011;59348;52.158;5.588;2022-08-25T06:17:28;7.80;;;6.10;;
22250;SDS011;59348;52.158;5.588;2022-08-25T06:19:55;11.43;;;6.38;;
22250;SDS011;59348;52.158;5.588;2022-08-25T06:22:23;12.95;;;6.57;;
22250;SDS011;59348;52.158;5.588;2022-08-25T06:24:50;8.45;;;6.07;;
22250;SDS011;59348;52.158;5.588;2022-08-25T06:27:19;18.25;;;6.20;;
22250;SDS011;59348;52.158;5.588;2022-08-25T06:29:46;10.65;;;6.57;;
22250;SDS011;59348;52.158;5.588;2022-08-25T06:32:13;9.13;;;6.22;;
22250;SDS011;59348;52.158;5.588;2022-08-25T06:34:41;13.30;;;6.53;;
22250;SDS011;59348;52.158;5.588;2022-08-25T06:37:08;11.98;;;6.60;;
22250;SDS011;59348;52.158;5.588;2022-08-25T06:39:35;12.73;;;6.68;;
22250;SDS011;59348;52.158;5.588;2022-08-25T06:42:03;12.85;;;6.65;;
22250;SDS011;59348;52.158;5.588;2022-08-25T06:44:31;9.45;;;6.03;;
22250;SDS011;59348;52.158;5.588;2022-08-25T06:46:59;9.50;;;6.45;;
22250;SDS011;59348;52.158;5.588;2022-08-25T06:49:26;11.02;;;6.57;;
22250;SDS011;59348;52.158;5.588;2022-08-25T06:51:53;11.75;;;6.40;;
22250;SDS011;59348;52.158;5.588;2022-08-25T06:54:20;8.55;;;6.00;;
22250;SDS011;59348;52.158;5.588;2022-08-25T06:56:48;10.00;;;6.20;;
22250;SDS011;59348;52.158;5.588;2022-08-25T06:59:15;10.07;;;6.38;;
22250;SDS011;59348;52.158;5.588;2022-08-25T07:01:44;16.30;;;6.13;;
22250;SDS011;59348;52.158;5.588;2022-08-25T07:04:11;11.73;;;6.30;;
22250;SDS011;59348;52.158;5.588;2022-08-25T07:06:38;11.25;;;6.30;;
22250;SDS011;59348;52.158;5.588;2022-08-25T07:09:06;8.38;;;5.53;;
22250;SDS011;59348;52.158;5.588;2022-08-25T07:11:34;9.23;;;5.60;;
22250;SDS011;59348;52.158;5.588;2022-08-25T07:14:01;10.90;;;6.00;;
22250;SDS011;59348;52.158;5.588;2022-08-25T07:16:29;10.15;;;5.68;;
22250;SDS011;59348;52.158;5.588;2022-08-25T07:18:58;12.10;;;6.50;;
22250;SDS011;59348;52.158;5.588;2022-08-25T07:21:26;15.05;;;6.13;;
22250;SDS011;59348;52.158;5.588;2022-08-25T07:23:53;7.70;;;5.40;;
22250;SDS011;59348;52.158;5.588;2022-08-25T07:26:24;9.70;;;6.03;;
22250;SDS011;59348;52.158;5.588;2022-08-25T07:28:52;9.15;;;5.63;;
22250;SDS011;59348;52.158;5.588;2022-08-25T07:31:19;9.05;;;5.40;;
22250;SDS011;59348;52.158;5.588;2022-08-25T07:33:46;10.95;;;5.63;;
22250;SDS011;59348;52.158;5.588;2022-08-25T07:36:29;7.95;;;5.50;;
22250;SDS011;59348;52.158;5.588;2022-08-25T07:38:57;10.63;;;5.05;;
22250;SDS011;59348;52.158;5.588;2022-08-25T07:41:30;8.60;;;5.20;;
22250;SDS011;59348;52.158;5.588;2022-08-25T07:43:58;10.95;;;5.75;;
22250;SDS011;59348;52.158;5.588;2022-08-25T07:46:26;10.73;;;5.55;;
22250;SDS011;59348;52.158;5.588;2022-08-25T07:48:53;6.13;;;5.07;;
22250;SDS011;59348;52.158;5.588;2022-08-25T07:51:21;6.65;;;4.85;;
22250;SDS011;59348;52.158;5.588;2022-08-25T07:53:49;8.38;;;5.45;;
22250;SDS011;59348;52.158;5.588;2022-08-25T07:56:17;7.53;;;4.82;;
22250;SDS011;59348;52.158;5.588;2022-08-25T07:58:45;16.63;;;5.20;;
22250;SDS011;59348;52.158;5.588;2022-08-25T08:01:13;7.03;;;4.70;;
22250;SDS011;59348;52.158;5.588;2022-08-25T08:03:40;7.43;;;4.88;;
22250;SDS011;59348;52.158;5.588;2022-08-25T08:06:08;7.90;;;4.68;;
22250;SDS011;59348;52.158;5.588;2022-08-25T08:08:36;7.25;;;4.57;;
22250;SDS011;59348;52.158;5.588;2022-08-25T08:11:04;7.97;;;4.55;;
22250;SDS011;59348;52.158;5.588;2022-08-25T08:13:32;12.93;;;4.60;;
22250;SDS011;59348;52.158;5.588;2022-08-25T08:16:00;7.97;;;4.68;;
22250;SDS011;59348;52.158;5.588;2022-08-25T08:18:27;7.38;;;4.78;;
22250;SDS011;59348;52.158;5.588;2022-08-25T08:20:54;7.90;;;4.60;;
22250;SDS011;59348;52.158;5.588;2022-08-25T08:23:22;7.90;;;4.63;;
22250;SDS011;59348;52.158;5.588;2022-08-25T08:25:51;5.30;;;4.55;;
22250;SDS011;59348;52.158;5.588;2022-08-25T08:28:21;7.60;;;4.70;;
22250;SDS011;59348;52.158;5.588;2022-08-25T08:30:52;6.50;;;4.25;;
22250;SDS011;59348;52.158;5.588;2022-08-25T08:33:20;12.18;;;4.80;;
22250;SDS011;59348;52.158;5.588;2022-08-25T08:35:53;9.52;;;4.80;;
22250;SDS011;59348;52.158;5.588;2022-08-25T08:38:21;7.13;;;4.70;;
22250;SDS011;59348;52.158;5.588;2022-08-25T08:40:53;10.75;;;4.50;;
22250;SDS011;59348;52.158;5.588;2022-08-25T08:43:40;8.10;;;4.95;;
22250;SDS011;59348;52.158;5.588;2022-08-25T08:46:08;7.20;;;4.70;;
22250;SDS011;59348;52.158;5.588;2022-08-25T08:48:43;9.23;;;4.43;;
22250;SDS011;59348;52.158;5.588;2022-08-25T08:51:15;9.77;;;5.00;;
22250;SDS011;59348;52.158;5.588;2022-08-25T08:53:47;6.03;;;4.55;;
22250;SDS011;59348;52.158;5.588;2022-08-25T08:56:18;7.43;;;4.40;;
22250;SDS011;59348;52.158;5.588;2022-08-25T08:58:48;7.38;;;4.78;;
22250;SDS011;59348;52.158;5.588;2022-08-25T09:01:17;9.23;;;4.78;;
22250;SDS011;59348;52.158;5.588;2022-08-25T09:03:46;6.18;;;4.60;;
22250;SDS011;59348;52.158;5.588;2022-08-25T09:06:17;7.82;;;4.63;;
22250;SDS011;59348;52.158;5.588;2022-08-25T09:08:46;10.25;;;4.50;;
22250;SDS011;59348;52.158;5.588;2022-08-25T09:11:17;10.20;;;5.00;;
22250;SDS011;59348;52.158;5.588;2022-08-25T09:16:41;8.48;;;4.40;;
22250;SDS011;59348;52.158;5.588;2022-08-25T09:19:30;7.25;;;4.40;;
22250;SDS011;59348;52.158;5.588;2022-08-25T09:22:00;13.25;;;4.50;;
22250;SDS011;59348;52.158;5.588;2022-08-25T09:24:48;6.93;;;4.32;;
22250;SDS011;59348;52.158;5.588;2022-08-25T09:27:20;9.15;;;4.30;;
22250;SDS011;59348;52.158;5.588;2022-08-25T09:29:54;10.13;;;4.18;;
22250;SDS011;59348;52.158;5.588;2022-08-25T09:32:25;7.25;;;4.53;;
22250;SDS011;59348;52.158;5.588;2022-08-25T09:34:53;6.38;;;4.22;;
22250;SDS011;59348;52.158;5.588;2022-08-25T09:37:20;9.38;;;4.68;;
22250;SDS011;59348;52.158;5.588;2022-08-25T09:39:49;9.43;;;4.10;;
22250;SDS011;59348;52.158;5.588;2022-08-25T09:42:17;9.10;;;4.53;;
22250;SDS011;59348;52.158;5.588;2022-08-25T09:44:45;6.90;;;4.53;;
22250;SDS011;59348;52.158;5.588;2022-08-25T09:47:14;7.18;;;4.40;;
22250;SDS011;59348;52.158;5.588;2022-08-25T09:49:50;6.28;;;4.10;;
22250;SDS011;59348;52.158;5.588;2022-08-25T09:52:24;5.25;;;4.63;;
22250;SDS011;59348;52.158;5.588;2022-08-25T09:54:52;6.50;;;4.40;;
22250;SDS011;59348;52.158;5.588;2022-08-25T09:57:28;6.05;;;4.10;;
22250;SDS011;59348;52.158;5.588;2022-08-25T09:59:55;7.78;;;4.32;;
22250;SDS011;59348;52.158;5.588;2022-08-25T10:02:24;4.85;;;3.95;;
22250;SDS011;59348;52.158;5.588;2022-08-25T10:04:54;6.28;;;4.65;;
22250;SDS011;59348;52.158;5.588;2022-08-25T10:07:22;7.28;;;4.20;;
22250;SDS011;59348;52.158;5.588;2022-08-25T10:09:51;6.00;;;4.22;;
22250;SDS011;59348;52.158;5.588;2022-08-25T10:12:20;6.05;;;4.82;;
22250;SDS011;59348;52.158;5.588;2022-08-25T10:14:48;11.02;;;5.07;;
22250;SDS011;59348;52.158;5.588;2022-08-25T10:17:16;7.55;;;4.10;;
22250;SDS011;59348;52.158;5.588;2022-08-25T10:19:49;6.22;;;4.65;;
22250;SDS011;59348;52.158;5.588;2022-08-25T10:22:21;5.50;;;4.68;;
22250;SDS011;59348;52.158;5.588;2022-08-25T10:24:55;6.57;;;4.40;;
22250;SDS011;59348;52.158;5.588;2022-08-25T10:27:25;8.23;;;4.88;;
22250;SDS011;59348;52.158;5.588;2022-08-25T10:30:03;10.40;;;4.75;;
22250;SDS011;59348;52.158;5.588;2022-08-25T10:32:35;5.57;;;4.20;;
22250;SDS011;59348;52.158;5.588;2022-08-25T10:35:05;6.07;;;4.18;;
22250;SDS011;59348;52.158;5.588;2022-08-25T10:37:39;7.32;;;4.53;;
22250;SDS011;59348;52.158;5.588;2022-08-25T10:40:12;6.00;;;4.18;;
22250;SDS011;59348;52.158;5.588;2022-08-25T10:42:42;7.38;;;4.65;;
22250;SDS011;59348;52.158;5.588;2022-08-25T10:45:16;8.93;;;3.78;;
22250;SDS011;59348;52.158;5.588;2022-08-25T10:48:06;7.22;;;4.10;;
22250;SDS011;59348;52.158;5.588;2022-08-25T10:50:38;6.93;;;4.00;;
22250;SDS011;59348;52.158;5.588;2022-08-25T10:53:12;6.55;;;4.38;;
22250;SDS011;59348;52.158;5.588;2022-08-25T10:55:42;5.03;;;4.07;;
22250;SDS011;59348;52.158;5.588;2022-08-25T10:58:13;4.65;;;4.10;;
22250;SDS011;59348;52.158;5.588;2022-08-25T11:00:42;5.20;;;3.80;;
22250;SDS011;59348;52.158;5.588;2022-08-25T11:03:16;7.88;;;3.83;;
22250;SDS011;59348;52.158;5.588;2022-08-25T11:05:45;7.38;;;4.72;;
22250;SDS011;59348;52.158;5.588;2022-08-25T11:08:15;5.07;;;4.28;;
22250;SDS011;59348;52.158;5.588;2022-08-25T11:10:45;6.10;;;4.22;;
22250;SDS011;59348;52.158;5.588;2022-08-25T11:13:14;10.90;;;4.47;;
22250;SDS011;59348;52.158;5.588;2022-08-25T11:15:44;5.38;;;4.25;;
22250;SDS011;59348;52.158;5.588;2022-08-25T11:18:13;8.07;;;5.10;;
22250;SDS011;59348;52.158;5.588;2022-08-25T11:20:42;6.85;;;4.63;;
22250;SDS011;59348;52.158;5.588;2022-08-25T11:23:14;7.15;;;4.47;;
22250;SDS011;59348;52.158;5.588;2022-08-25T11:25:44;6.90;;;4.50;;
22250;SDS011;59348;52.158;5.588;2022-08-25T11:28:13;5.43;;;4.53;;
22250;SDS011;59348;52.158;5.588;2022-08-25T11:30:42;5.18;;;4.68;;
22250;SDS011;59348;52.158;5.588;2022-08-25T11:33:10;5.60;;;4.28;;
22250;SDS011;59348;52.158;5.588;2022-08-25T11:35:40;7.45;;;5.13;;
22250;SDS011;59348;52.158;5.588;2022-08-25T11:38:13;5.68;;;4.75;;
22250;SDS011;59348;52.158;5.588;2022-08-25T11:40:49;4.85;;;4.38;;
22250;SDS011;59348;52.158;5.588;2022-08-25T11:43:26;6.47;;;4.60;;
22250;SDS011;59348;52.158;5.588;2022-08-25T11:45:59;5.35;;;4.82;;
22250;SDS011;59348;52.158;5.588;2022-08-25T11:48:34;8.73;;;4.50;;
22250;SDS011;59348;52.158;5.588;2022-08-25T11:51:05;5.65;;;4.68;;
22250;SDS011;59348;52.158;5.588;2022-08-25T11:53:34;6.68;;;4.93;;
22250;SDS011;59348;52.158;5.588;2022-08-25T11:56:04;11.73;;;4.82;;
22250;SDS011;59348;52.158;5.588;2022-08-25T11:58:36;6.95;;;5.10;;
22250;SDS011;59348;52.158;5.588;2022-08-25T12:01:05;7.30;;;4.80;;
22250;SDS011;59348;52.158;5.588;2022-08-25T12:06:21;4.82;;;4.43;;
22250;SDS011;59348;52.158;5.588;2022-08-25T12:08:51;5.35;;;4.85;;
22250;SDS011;59348;52.158;5.588;2022-08-25T12:14:13;7.68;;;5.40;;
22250;SDS011;59348;52.158;5.588;2022-08-25T12:16:41;5.90;;;5.20;;
22250;SDS011;59348;52.158;5.588;2022-08-25T12:21:52;7.38;;;5.18;;
22250;SDS011;59348;52.158;5.588;2022-08-25T12:24:20;10.43;;;5.18;;
22250;SDS011;59348;52.158;5.588;2022-08-25T12:26:50;6.40;;;5.07;;
22250;SDS011;59348;52.158;5.588;2022-08-25T12:29:23;8.32;;;5.25;;
22250;SDS011;59348;52.158;5.588;2022-08-25T12:31:57;5.72;;;5.18;;
22250;SDS011;59348;52.158;5.588;2022-08-25T12:34:35;7.88;;;5.10;;
22250;SDS011;59348;52.158;5.588;2022-08-25T12:37:10;9.50;;;5.13;;
22250;SDS011;59348;52.158;5.588;2022-08-25T12:39:42;5.97;;;5.38;;
22250;SDS011;59348;52.158;5.588;2022-08-25T12:42:17;6.05;;;5.05;;
22250;SDS011;59348;52.158;5.588;2022-08-25T12:45:06;6.25;;;5.03;;
22250;SDS011;59348;52.158;5.588;2022-08-25T12:47:34;7.28;;;5.25;;
22250;SDS011;59348;52.158;5.588;2022-08-25T12:52:43;5.55;;;5.05;;
22250;SDS011;59348;52.158;5.588;2022-08-25T12:55:11;6.43;;;5.03;;
22250;SDS011;59348;52.158;5.588;2022-08-25T12:57:42;5.85;;;5.25;;
22250;SDS011;59348;52.158;5.588;2022-08-25T13:00:15;6.43;;;4.85;;
22250;SDS011;59348;52.158;5.588;2022-08-25T13:10:51;6.13;;;5.55;;
22250;SDS011;59348;52.158;5.588;2022-08-25T13:13:22;9.77;;;5.78;;
22250;SDS011;59348;52.158;5.588;2022-08-25T13:15:59;5.90;;;5.30;;
22250;SDS011;59348;52.158;5.588;2022-08-25T13:18:30;6.65;;;5.57;;
22250;SDS011;59348;52.158;5.588;2022-08-25T13:21:02;10.95;;;6.45;;
22250;SDS011;59348;52.158;5.588;2022-08-25T13:23:29;8.77;;;6.13;;
22250;SDS011;59348;52.158;5.588;2022-08-25T13:25:57;7.15;;;6.45;;
22250;SDS011;59348;52.158;5.588;2022-08-25T13:28:26;9.25;;;6.20;;
22250;SDS011;59348;52.158;5.588;2022-08-25T13:30:56;8.60;;;6.07;;
22250;SDS011;59348;52.158;5.588;2022-08-25T13:33:25;7.32;;;6.50;;
22250;SDS011;59348;52.158;5.588;2022-08-25T13:35:53;6.15;;;5.57;;
22250;SDS011;59348;52.158;5.588;2022-08-25T13:38:41;6.90;;;6.05;;
22250;SDS011;59348;52.158;5.588;2022-08-25T13:41:08;6.95;;;6.13;;
22250;SDS011;59348;52.158;5.588;2022-08-25T13:43:35;9.05;;;6.05;;
22250;SDS011;59348;52.158;5.588;2022-08-25T13:46:03;7.43;;;6.03;;
22250;SDS011;59348;52.158;5.588;2022-08-25T13:48:33;7.57;;;6.88;;
22250;SDS011;59348;52.158;5.588;2022-08-25T13:51:09;7.57;;;6.65;;
22250;SDS011;59348;52.158;5.588;2022-08-25T13:53:46;7.25;;;6.25;;
22250;SDS011;59348;52.158;5.588;2022-08-25T13:56:20;9.95;;;6.40;;
22250;SDS011;59348;52.158;5.588;2022-08-25T13:58:48;7.97;;;6.28;;
22250;SDS011;59348;52.158;5.588;2022-08-25T14:01:17;10.95;;;6.88;;
22250;SDS011;59348;52.158;5.588;2022-08-25T14:03:48;8.38;;;6.22;;
22250;SDS011;59348;52.158;5.588;2022-08-25T14:06:18;7.00;;;5.57;;
22250;SDS011;59348;52.158;5.588;2022-08-25T14:08:46;8.40;;;6.20;;
22250;SDS011;59348;52.158;5.588;2022-08-25T14:11:27;6.50;;;5.88;;
22250;SDS011;59348;52.158;5.588;2022-08-25T14:13:58;7.35;;;6.00;;
22250;SDS011;59348;52.158;5.588;2022-08-25T14:16:26;7.03;;;6.05;;
22250;SDS011;59348;52.158;5.588;2022-08-25T14:18:55;7.38;;;6.68;;
22250;SDS011;59348;52.158;5.588;2022-08-25T14:21:25;8.48;;;7.00;;
22250;SDS011;59348;52.158;5.588;2022-08-25T14:23:53;10.25;;;6.57;;
22250;SDS011;59348;52.158;5.588;2022-08-25T14:26:21;6.72;;;6.13;;
22250;SDS011;59348;52.158;5.588;2022-08-25T14:28:48;8.20;;;7.03;;
22250;SDS011;59348;52.158;5.588;2022-08-25T14:31:17;8.23;;;6.65;;
22250;SDS011;59348;52.158;5.588;2022-08-25T14:33:50;6.70;;;6.10;;
22250;SDS011;59348;52.158;5.588;2022-08-25T14:36:19;7.32;;;6.72;;
22250;SDS011;59348;52.158;5.588;2022-08-25T14:38:47;7.60;;;6.90;;
22250;SDS011;59348;52.158;5.588;2022-08-25T14:41:14;6.90;;;6.22;;
22250;SDS011;59348;52.158;5.588;2022-08-25T14:43:41;7.53;;;6.55;;
22250;SDS011;59348;52.158;5.588;2022-08-25T14:46:09;8.23;;;6.25;;
22250;SDS011;59348;52.158;5.588;2022-08-25T14:48:39;7.35;;;6.65;;
22250;SDS011;59348;52.158;5.588;2022-08-25T14:51:07;9.13;;;6.45;;
22250;SDS011;59348;52.158;5.588;2022-08-25T14:53:38;8.32;;;6.38;;
22250;SDS011;59348;52.158;5.588;2022-08-25T14:56:05;9.18;;;6.65;;
22250;SDS011;59348;52.158;5.588;2022-08-25T14:58:32;8.60;;;7.18;;
22250;SDS011;59348;52.158;5.588;2022-08-25T15:01:00;8.40;;;6.63;;
22250;SDS011;59348;52.158;5.588;2022-08-25T15:03:30;7.97;;;7.28;;
22250;SDS011;59348;52.158;5.588;2022-08-25T15:05:58;7.93;;;7.22;;
22250;SDS011;59348;52.158;5.588;2022-08-25T15:08:26;8.23;;;7.53;;
22250;SDS011;59348;52.158;5.588;2022-08-25T15:11:08;8.88;;;7.47;;
22250;SDS011;59348;52.158;5.588;2022-08-25T15:13:37;8.77;;;7.97;;
22250;SDS011;59348;52.158;5.588;2022-08-25T15:16:05;8.25;;;7.53;;
22250;SDS011;59348;52.158;5.588;2022-08-25T15:18:33;8.65;;;7.85;;
22250;SDS011;59348;52.158;5.588;2022-08-25T15:21:01;10.07;;;9.05;;